Time;durP1;ratioP1;P1;durP2;ratioP2;P2;SDS_P1;SDS_P2;PMS_P1;PMS_P2;Temp;Humidity;BMP_temperature;BMP_pressure;BME280_temperature;BME280_humidity;BME280_pressure;Samples;Min_cycle;Max_cycle;Signal;HPM_P1;HPM_P2
2022/04/25 00:00:45;;;;;;;6.50;5.37;;;;;;;9.73;68.04;99441.69;5099766;28;20224;-81
2022/04/25 00:03:12;;;;;;;7.57;5.67;;;;;;;9.66;68.61;99435.00;5099546;28;20294;-81
2022/04/25 00:05:38;;;;;;;7.67;5.33;;;;;;;9.66;68.38;99440.22;5098399;28;20208;-82
2022/04/25 00:08:05;;;;;;;8.70;5.63;;;;;;;9.67;68.67;99441.91;5100154;28;20234;-80
2022/04/25 00:10:32;;;;;;;5.83;5.13;;;;;;;9.66;68.37;99437.59;5098746;28;20235;-81
2022/04/25 00:12:59;;;;;;;6.80;5.73;;;;;;;9.67;68.66;99436.69;5099756;28;20207;-82
2022/04/25 00:15:27;;;;;;;6.20;5.47;;;;;;;9.62;68.25;99441.22;5099467;28;20216;-82
2022/04/25 00:17:53;;;;;;;6.20;5.37;;;;;;;9.55;68.66;99435.31;5099142;28;20204;-82
2022/04/25 00:20:20;;;;;;;6.27;5.67;;;;;;;9.54;68.70;99431.88;5098316;28;20228;-80
2022/04/25 00:22:46;;;;;;;6.70;5.40;;;;;;;9.51;68.98;99431.09;5098643;28;20204;-80
2022/04/25 00:25:13;;;;;;;6.80;5.27;;;;;;;9.49;69.25;99425.97;5099048;28;20693;-82
2022/04/25 00:27:40;;;;;;;7.00;5.30;;;;;;;9.45;68.92;99426.09;5099196;28;20200;-80
2022/04/25 00:30:07;;;;;;;7.33;5.67;;;;;;;9.42;69.02;99427.03;5100195;28;20235;-81
2022/04/25 00:32:35;;;;;;;5.47;4.93;;;;;;;9.43;68.69;99430.50;5100578;28;20215;-81
2022/04/25 00:35:03;;;;;;;7.37;5.63;;;;;;;9.40;68.96;99430.59;5099721;28;20249;-81
2022/04/25 00:37:29;;;;;;;6.23;4.93;;;;;;;9.35;69.05;99415.09;5099409;28;20259;-80
2022/04/25 00:39:56;;;;;;;6.87;5.50;;;;;;;9.33;69.96;99402.09;5081237;28;20230;-80
2022/04/25 00:42:22;;;;;;;7.77;5.73;;;;;;;9.34;69.89;99397.78;5098659;28;20223;-81
2022/04/25 00:44:49;;;;;;;7.20;5.97;;;;;;;9.34;69.65;99403.81;5098756;28;20197;-82
2022/04/25 00:47:15;;;;;;;5.63;5.07;;;;;;;9.33;69.04;99409.06;5099911;28;20207;-81
2022/04/25 00:49:43;;;;;;;6.40;5.60;;;;;;;9.27;70.13;99399.69;5099103;28;20624;-82
2022/04/25 00:52:09;;;;;;;6.90;6.07;;;;;;;9.27;69.83;99391.03;5098848;28;20257;-80
2022/04/25 00:54:36;;;;;;;6.67;5.37;;;;;;;9.20;70.73;99392.16;5098653;28;20332;-82
2022/04/25 00:57:03;;;;;;;7.93;5.33;;;;;;;9.17;69.69;99387.84;5098872;28;20228;-82
2022/04/25 00:59:30;;;;;;;9.50;7.13;;;;;;;9.15;70.05;99393.09;5099714;28;20200;-81
2022/04/25 01:01:56;;;;;;;7.13;5.23;;;;;;;9.13;70.90;99392.31;5097759;28;20588;-81
2022/04/25 01:04:22;;;;;;;5.63;4.83;;;;;;;9.15;70.67;99397.47;5098283;28;20208;-82
2022/04/25 01:06:50;;;;;;;6.37;5.73;;;;;;;9.14;71.32;99377.56;5098513;28;20720;-82
2022/04/25 01:09:16;;;;;;;6.60;5.83;;;;;;;9.20;70.71;99379.13;5099542;28;20285;-81
2022/04/25 01:11:43;;;;;;;5.80;5.20;;;;;;;9.20;71.34;99374.75;5099012;28;20289;-80
2022/04/25 01:14:14;;;;;;;6.43;5.83;;;;;;;9.22;70.79;99387.75;5098388;28;20257;-82
2022/04/25 01:16:40;;;;;;;6.00;5.40;;;;;;;9.22;70.79;99392.94;5098976;28;20236;-82
2022/04/25 01:19:07;;;;;;;6.20;5.50;;;;;;;9.24;70.25;99397.19;5098925;28;20763;-82
2022/04/25 01:21:39;;;;;;;7.23;4.93;;;;;;;9.24;70.71;99398.97;5098357;28;20226;-80
2022/04/25 01:29:37;;;;;;;8.03;4.83;;;;;;;9.22;71.37;99388.59;5098476;28;20321;-80
2022/04/25 01:32:04;;;;;;;6.80;6.20;;;;;;;9.22;71.56;99385.13;5098314;28;20227;-82
2022/04/25 01:34:32;;;;;;;6.87;5.20;;;;;;;9.21;71.60;99394.69;5098483;28;20212;-81
2022/04/25 01:36:59;;;;;;;6.50;5.70;;;;;;;9.20;71.79;99387.78;5098666;28;20241;-81
2022/04/25 01:39:27;;;;;;;6.27;5.67;;;;;;;9.15;71.68;99376.63;5098078;28;20203;-81
2022/04/25 01:41:54;;;;;;;6.50;5.90;;;;;;;9.17;71.59;99374.00;5099049;28;20244;-82
2022/04/25 01:44:20;;;;;;;6.33;5.60;;;;;;;9.20;71.79;99382.56;5098950;28;20568;-81
2022/04/25 01:46:46;;;;;;;7.07;5.50;;;;;;;9.19;71.31;99391.28;5097957;28;20212;-82
2022/04/25 01:49:12;;;;;;;7.53;5.53;;;;;;;9.17;71.43;99400.88;5098444;28;20204;-81
2022/04/25 01:51:40;;;;;;;6.13;5.50;;;;;;;9.14;71.92;99391.41;5099050;28;20226;-82
2022/04/25 01:54:06;;;;;;;6.33;5.73;;;;;;;9.11;71.89;99390.66;5098168;28;20208;-80
2022/04/25 01:56:34;;;;;;;7.17;5.77;;;;;;;9.13;71.64;99388.84;5098446;28;20220;-82
2022/04/25 01:59:01;;;;;;;6.90;6.20;;;;;;;9.10;72.49;99383.75;5097409;28;20215;-82
2022/04/25 02:01:27;;;;;;;7.07;5.87;;;;;;;9.11;72.21;99385.44;5097993;28;20227;-80
2022/04/25 02:03:54;;;;;;;5.97;5.20;;;;;;;9.13;72.28;99394.06;5097519;28;20260;-81
2022/04/25 02:06:20;;;;;;;6.97;6.07;;;;;;;9.09;72.06;99380.28;5100779;28;20254;-83
2022/04/25 02:08:46;;;;;;;6.43;5.93;;;;;;;9.11;72.33;99383.69;5101883;28;20241;-81
2022/04/25 02:11:22;;;;;;;7.33;5.77;;;;;;;9.12;72.41;99379.34;5102203;28;20219;-81
2022/04/25 02:13:51;;;;;;;7.27;5.57;;;;;;;9.11;72.82;99375.88;5094487;28;20187;-81
2022/04/25 02:16:18;;;;;;;7.73;5.73;;;;;;;9.09;72.95;99371.63;5101922;28;20217;-80
2022/04/25 02:18:44;;;;;;;10.53;6.10;;;;;;;9.08;72.29;99368.19;5101892;28;20257;-81
2022/04/25 02:21:11;;;;;;;6.40;5.83;;;;;;;9.06;72.40;99363.91;5101213;28;20285;-82
2022/04/25 02:23:38;;;;;;;6.97;6.00;;;;;;;9.04;72.86;99353.56;5101374;28;20268;-80
2022/04/25 02:26:05;;;;;;;8.03;6.00;;;;;;;9.01;73.83;99337.16;5101690;28;20211;-80
2022/04/25 02:28:34;;;;;;;8.00;7.27;;;;;;;9.00;73.99;99325.91;5101693;28;20207;-82
2022/04/25 02:31:01;;;;;;;6.70;6.07;;;;;;;9.02;74.72;99315.44;5101329;28;20250;-81
2022/04/25 02:33:28;;;;;;;6.97;6.37;;;;;;;9.01;75.61;99303.31;5101504;28;20211;-81
2022/04/25 02:35:54;;;;;;;7.40;6.57;;;;;;;8.99;75.43;99289.50;5100541;28;20227;-80
2022/04/25 02:38:21;;;;;;;7.37;6.67;;;;;;;8.93;76.37;99274.94;5100944;28;20202;-83
2022/04/25 02:41:04;;;;;;;7.00;6.40;;;;;;;8.97;76.26;99270.50;5101642;28;20264;-82
2022/04/25 02:43:31;;;;;;;7.17;6.47;;;;;;;8.97;76.13;99260.94;5100581;28;20203;-81
2022/04/25 02:45:57;;;;;;;8.97;6.40;;;;;;;8.95;77.18;99266.16;5101356;28;20662;-83
2022/04/25 02:48:25;;;;;;;7.27;6.53;;;;;;;8.93;76.89;99260.16;5100861;28;20589;-83
2022/04/25 02:50:51;;;;;;;7.37;6.60;;;;;;;8.92;76.79;99250.66;5101012;28;20639;-82
2022/04/25 02:53:18;;;;;;;7.47;6.57;;;;;;;8.89;77.33;99258.56;5101702;28;20230;-81
2022/04/25 02:55:44;;;;;;;6.67;6.13;;;;;;;8.89;77.14;99253.34;5101395;28;20223;-83
2022/04/25 02:58:10;;;;;;;7.00;6.30;;;;;;;8.89;77.61;99248.16;5102179;28;20208;-80
2022/04/25 03:00:37;;;;;;;7.47;6.80;;;;;;;8.89;77.31;99258.56;5101626;28;20289;-82
2022/04/25 03:03:04;;;;;;;7.60;6.50;;;;;;;8.88;77.60;99263.81;5101083;28;20566;-83
2022/04/25 03:05:32;;;;;;;7.47;6.77;;;;;;;8.84;77.90;99264.78;5100473;28;20300;-81
2022/04/25 03:07:59;;;;;;;6.83;6.23;;;;;;;8.83;78.08;99260.50;5101901;28;20265;-82
2022/04/25 03:10:25;;;;;;;7.37;6.77;;;;;;;8.83;78.21;99261.34;5101397;28;20674;-82
2022/04/25 03:12:52;;;;;;;7.43;6.73;;;;;;;8.82;77.82;99275.28;5101239;28;20204;-83
2022/04/25 03:15:18;;;;;;;8.13;6.80;;;;;;;8.83;77.69;99276.13;5099984;28;20250;-81
2022/04/25 03:17:44;;;;;;;8.47;7.67;;;;;;;8.83;77.78;99269.16;5100920;28;20225;-83
2022/04/25 03:20:13;;;;;;;7.80;7.10;;;;;;;8.85;78.12;99276.94;5100849;28;20233;-83
2022/04/25 03:22:40;;;;;;;8.03;7.33;;;;;;;8.81;78.39;99275.31;5101607;28;20210;-81
2022/04/25 03:25:07;;;;;;;8.57;7.73;;;;;;;8.83;77.85;99273.53;5100664;28;20778;-82
2022/04/25 03:27:33;;;;;;;8.13;7.43;;;;;;;8.80;78.86;99260.59;5100765;28;20696;-84
2022/04/25 03:30:00;;;;;;;7.20;6.60;;;;;;;8.79;78.87;99251.09;5100703;28;20206;-82
2022/04/25 03:32:26;;;;;;;8.67;7.37;;;;;;;8.78;78.59;99251.97;5102736;28;20207;-83
2022/04/25 03:34:53;;;;;;;8.93;7.70;;;;;;;8.80;78.09;99268.41;5101365;28;20203;-84
2022/04/25 03:37:20;;;;;;;7.90;7.30;;;;;;;8.81;79.25;99267.50;5101091;28;20722;-83
2022/04/25 03:39:48;;;;;;;8.40;7.40;;;;;;;8.81;79.44;99260.56;5101487;28;20207;-82
2022/04/25 03:42:15;;;;;;;7.30;6.70;;;;;;;8.80;79.55;99263.19;5101095;28;20258;-82
2022/04/25 03:44:42;;;;;;;6.93;6.33;;;;;;;8.79;80.09;99246.72;5091494;28;20561;-84
2022/04/25 03:47:08;;;;;;;6.93;6.40;;;;;;;8.79;79.31;99261.50;5100926;28;20617;-84
2022/04/25 03:49:35;;;;;;;6.33;5.83;;;;;;;8.81;80.13;99257.94;5101228;28;20624;-82
2022/04/25 03:52:01;;;;;;;6.27;5.77;;;;;;;8.75;79.51;99266.78;5101033;28;20250;-83
2022/04/25 03:57:14;;;;;;;15.53;6.77;;;;;;;8.77;79.71;99276.31;5058728;28;20243;-82
2022/04/25 03:59:40;;;;;;;7.37;6.77;;;;;;;8.73;80.53;99265.97;5101612;28;20235;-82
2022/04/25 04:02:07;;;;;;;7.67;7.17;;;;;;;8.71;80.62;99269.53;5101374;28;20226;-83
2022/04/25 04:04:33;;;;;;;7.70;7.00;;;;;;;8.72;80.41;99276.44;5100835;28;20268;-83
2022/04/25 04:07:00;;;;;;;7.63;7.03;;;;;;;8.68;80.65;99273.09;5101438;28;20227;-82
2022/04/25 04:12:12;;;;;;;7.37;6.77;;;;;;;8.64;81.29;99274.09;5101518;28;20230;-84
2022/04/25 04:14:38;;;;;;;7.93;7.23;;;;;;;8.67;81.16;99281.78;5100899;28;20207;-83
2022/04/25 04:17:07;;;;;;;7.57;6.97;;;;;;;8.68;80.94;99274.81;5100749;28;20240;-82
2022/04/25 04:19:33;;;;;;;7.37;6.77;;;;;;;8.71;80.69;99298.16;5102110;28;20234;-82
2022/04/25 04:22:01;;;;;;;8.70;7.93;;;;;;;8.69;81.20;99284.34;5099815;28;20273;-83
2022/04/25 04:24:27;;;;;;;8.00;7.30;;;;;;;8.69;81.35;99290.38;5100248;28;20204;-83
2022/04/25 04:26:55;;;;;;;7.97;7.27;;;;;;;8.70;81.08;99292.09;5100790;28;20214;-83
2022/04/25 04:29:23;;;;;;;8.80;8.03;;;;;;;8.68;81.06;99301.72;5100584;28;20208;-83
2022/04/25 04:31:50;;;;;;;9.20;8.37;;;;;;;8.63;81.21;99311.38;5100790;28;20253;-83
2022/04/25 04:34:16;;;;;;;8.60;7.87;;;;;;;8.65;80.79;99314.78;5101925;28;20210;-83
2022/04/25 04:36:42;;;;;;;9.00;8.30;;;;;;;8.64;81.05;99326.13;5101733;28;20273;-84
2022/04/25 04:39:09;;;;;;;8.87;8.13;;;;;;;8.63;80.98;99324.38;5102647;28;20236;-83
2022/04/25 04:41:35;;;;;;;8.73;7.97;;;;;;;8.64;81.81;99318.31;5112232;22;20258;-80
2022/04/25 04:44:02;;;;;;;9.30;8.60;;;;;;;8.66;81.65;99313.03;5091274;28;20261;-80
2022/04/25 04:46:30;;;;;;;8.40;7.73;;;;;;;8.66;81.17;99333.84;5097994;28;20298;-80
2022/04/25 04:48:56;;;;;;;9.23;8.53;;;;;;;8.67;81.83;99338.16;5097684;28;20242;-80
2022/04/25 04:51:23;;;;;;;7.93;7.20;;;;;;;8.66;82.27;99337.31;5098441;28;20227;-81
2022/04/25 04:53:49;;;;;;;8.27;7.57;;;;;;;8.67;81.28;99331.22;5098720;28;20610;-82
2022/04/25 04:56:15;;;;;;;10.50;9.70;;;;;;;8.65;81.58;99334.75;5097887;28;20222;-79
2022/04/25 04:58:42;;;;;;;10.27;9.30;;;;;;;8.67;81.82;99335.56;5097797;28;20276;-81
2022/04/25 05:01:08;;;;;;;8.50;7.90;;;;;;;8.69;81.51;99345.03;5097421;28;20227;-79
2022/04/25 05:03:36;;;;;;;9.03;8.33;;;;;;;8.71;81.93;99339.78;5097069;28;20237;-80
2022/04/25 05:06:03;;;;;;;8.77;8.17;;;;;;;8.73;81.80;99343.19;5098063;28;20259;-79
2022/04/25 05:08:29;;;;;;;8.73;7.97;;;;;;;8.71;82.28;99342.38;5098815;28;20208;-77
2022/04/25 05:10:55;;;;;;;8.53;7.80;;;;;;;8.69;81.52;99360.63;5098357;28;20230;-80
2022/04/25 05:13:22;;;;;;;9.30;8.60;;;;;;;8.66;80.75;99373.75;5098665;28;20204;-79
2022/04/25 05:15:48;;;;;;;9.03;8.23;;;;;;;8.66;81.18;99386.75;5097383;28;20204;-79
2022/04/25 05:18:15;;;;;;;8.87;8.20;;;;;;;8.63;82.00;99384.22;5097980;28;20216;-79
2022/04/25 05:20:43;;;;;;;10.00;9.20;;;;;;;8.57;82.27;99383.56;5098017;28;20246;-80
2022/04/25 05:23:10;;;;;;;10.87;9.97;;;;;;;8.55;81.85;99371.44;5098508;28;20241;-79
2022/04/25 05:25:38;;;;;;;10.90;9.83;;;;;;;8.54;82.30;99374.06;5098013;28;20234;-80
2022/04/25 05:28:06;;;;;;;10.70;9.80;;;;;;;8.55;82.34;99366.22;5098908;28;20199;-80
2022/04/25 05:30:33;;;;;;;10.20;9.30;;;;;;;8.57;82.76;99349.75;5098532;28;20219;-80
2022/04/25 05:33:02;;;;;;;10.87;9.73;;;;;;;8.60;83.09;99353.06;5097638;28;20224;-79
2022/04/25 05:35:30;;;;;;;11.27;10.17;;;;;;;8.60;83.71;99347.03;5098311;28;20207;-80
2022/04/25 05:37:58;;;;;;;10.07;9.17;;;;;;;8.61;83.54;99353.94;5097844;28;20250;-79
2022/04/25 05:40:26;;;;;;;8.93;8.13;;;;;;;8.64;83.15;99362.53;5103461;28;20200;-80
2022/04/25 05:42:53;;;;;;;9.63;8.83;;;;;;;8.66;83.71;99355.53;5104630;28;20244;-79
2022/04/25 05:45:21;;;;;;;10.23;9.17;;;;;;;8.66;83.20;99360.72;5098824;28;20248;-80
2022/04/25 05:47:47;;;;;;;8.70;8.00;;;;;;;8.64;82.66;99390.25;5104960;28;20213;-80
2022/04/25 05:53:02;;;;;;;8.37;7.67;;;;;;;8.56;83.94;99367.06;5104686;28;20233;-79
2022/04/25 05:55:29;;;;;;;7.50;7.00;;;;;;;8.61;83.50;99366.97;5104073;28;20643;-79
2022/04/25 05:57:56;;;;;;;7.60;7.10;;;;;;;8.62;84.68;99363.44;5104850;28;20226;-83
2022/04/25 06:00:24;;;;;;;6.97;6.27;;;;;;;8.64;84.28;99374.66;5104774;28;20208;-81
2022/04/25 06:02:50;;;;;;;7.73;7.03;;;;;;;8.67;84.58;99375.44;5103772;28;20284;-79
2022/04/25 06:05:17;;;;;;;6.37;5.87;;;;;;;8.64;84.44;99378.13;5101831;28;20253;-79
2022/04/25 06:07:45;;;;;;;6.73;6.20;;;;;;;8.71;83.89;99390.06;5102494;28;20587;-79
2022/04/25 06:10:14;;;;;;;7.20;6.60;;;;;;;8.70;83.90;99390.97;5102805;28;20207;-79
2022/04/25 06:12:41;;;;;;;7.20;6.60;;;;;;;8.71;83.81;99405.66;5102988;28;20256;-80
2022/04/25 06:15:08;;;;;;;6.50;6.03;;;;;;;8.73;83.76;99413.44;5101166;28;20214;-79
2022/04/25 06:17:35;;;;;;;6.70;6.10;;;;;;;8.75;83.42;99417.69;5100601;28;20226;-79
2022/04/25 06:20:01;;;;;;;6.10;5.53;;;;;;;8.76;83.74;99421.16;5102186;28;20751;-79
2022/04/25 06:22:30;;;;;;;6.37;5.87;;;;;;;8.74;82.84;99442.03;5101925;28;20224;-79
2022/04/25 06:24:56;;;;;;;5.90;5.40;;;;;;;8.73;83.33;99440.28;5101597;28;20205;-79
2022/04/25 06:27:24;;;;;;;6.47;5.97;;;;;;;8.70;83.70;99430.00;5102027;28;20672;-79
2022/04/25 06:29:52;;;;;;;6.30;5.80;;;;;;;8.68;82.86;99442.19;5102517;28;20268;-80
2022/04/25 06:32:19;;;;;;;6.03;5.53;;;;;;;8.69;82.56;99456.88;5102512;28;20283;-79
2022/04/25 06:34:45;;;;;;;6.27;5.77;;;;;;;8.70;83.47;99452.53;5101889;28;20544;-79
2022/04/25 06:37:12;;;;;;;5.90;5.50;;;;;;;8.71;82.94;99456.84;5102290;28;20228;-77
2022/04/25 06:39:38;;;;;;;5.33;4.93;;;;;;;8.73;83.31;99466.31;5101595;28;20204;-79
2022/04/25 06:42:05;;;;;;;4.93;4.50;;;;;;;8.71;84.18;99452.50;5101563;28;20234;-79
2022/04/25 06:44:33;;;;;;;6.13;5.63;;;;;;;8.71;83.00;99460.31;5094431;28;20213;-79
2022/04/25 06:46:59;;;;;;;5.77;5.37;;;;;;;8.71;83.37;99462.91;5101488;28;20196;-78
2022/04/25 06:49:27;;;;;;;5.83;5.43;;;;;;;8.71;82.83;99488.06;5101530;28;20211;-78
2022/04/25 06:51:56;;;;;;;5.33;4.93;;;;;;;8.72;83.28;99479.34;5098528;28;20224;-78
2022/04/25 06:54:24;;;;;;;5.43;5.03;;;;;;;8.69;82.34;99495.91;5098148;28;20203;-78
2022/04/25 06:56:51;;;;;;;6.03;5.53;;;;;;;8.67;82.20;99510.72;5098292;28;20212;-79
2022/04/25 06:59:18;;;;;;;5.70;5.30;;;;;;;8.66;82.83;99500.34;5096751;28;20211;-80
2022/04/25 07:01:46;;;;;;;6.17;5.77;;;;;;;8.64;83.08;99502.13;5096159;28;20234;-79
2022/04/25 07:04:12;;;;;;;6.07;5.57;;;;;;;8.63;82.11;99509.09;5095748;28;20200;-79
2022/04/25 07:06:39;;;;;;;7.00;6.47;;;;;;;8.63;82.40;99503.88;5096726;28;20219;-78
2022/04/25 07:09:06;;;;;;;7.13;6.53;;;;;;;8.61;82.39;99517.84;5096070;28;20202;-79
2022/04/25 07:11:33;;;;;;;7.37;6.87;;;;;;;8.55;83.10;99504.06;5095611;28;20231;-79
2022/04/25 07:13:59;;;;;;;7.47;6.87;;;;;;;8.61;83.66;99494.41;5095522;28;20211;-79
2022/04/25 07:16:26;;;;;;;7.63;7.03;;;;;;;8.59;83.63;99501.41;5095386;28;20198;-77
2022/04/25 07:18:54;;;;;;;7.13;6.53;;;;;;;8.63;83.49;99495.22;5095187;28;20230;-78
2022/04/25 07:29:33;;;;;;;9.17;8.47;;;;;;;8.73;83.88;99514.91;5096760;28;20249;-79
2022/04/25 07:31:59;;;;;;;7.63;7.03;;;;;;;8.70;83.89;99504.56;5096156;28;20282;-80
2022/04/25 07:34:27;;;;;;;7.13;6.67;;;;;;;8.71;83.35;99508.88;5099985;28;20207;-80
2022/04/25 07:36:54;;;;;;;6.87;6.27;;;;;;;8.69;83.41;99521.09;5105540;28;20729;-81
2022/04/25 07:39:20;;;;;;;7.13;6.53;;;;;;;8.70;83.32;99526.25;5108983;28;20249;-80
2022/04/25 07:41:47;;;;;;;6.60;6.07;;;;;;;8.66;84.28;99518.53;5107661;28;20238;-79
2022/04/25 07:44:14;;;;;;;7.20;6.70;;;;;;;8.68;84.76;99515.03;5106924;28;20206;-78
2022/04/25 07:46:41;;;;;;;7.30;6.70;;;;;;;8.70;83.99;99526.25;5103959;28;20203;-80
2022/04/25 07:49:07;;;;;;;6.80;6.30;;;;;;;8.71;84.49;99519.28;5108799;28;20198;-80
2022/04/25 07:51:35;;;;;;;7.83;7.23;;;;;;;8.73;84.45;99520.09;5109289;28;20225;-80
2022/04/25 07:54:04;;;;;;;8.17;6.33;;;;;;;8.77;85.18;99497.47;5104172;28;20238;-79
2022/04/25 07:56:31;;;;;;;6.97;6.47;;;;;;;8.85;85.06;99490.31;5108057;28;20203;-80
2022/04/25 07:58:57;;;;;;;7.03;6.53;;;;;;;8.99;84.85;99500.34;5108845;28;20623;-79
2022/04/25 08:01:24;;;;;;;7.57;6.97;;;;;;;9.08;85.64;99493.13;5106744;28;20216;-80
2022/04/25 08:03:50;;;;;;;7.73;7.13;;;;;;;9.14;85.14;99502.53;5106654;28;20218;-80
2022/04/25 08:06:20;;;;;;;7.87;7.23;;;;;;;9.21;84.82;99529.22;5109928;28;20207;-81
2022/04/25 08:08:48;;;;;;;8.00;7.40;;;;;;;9.22;83.94;99541.38;5107844;28;20241;-81
2022/04/25 08:11:14;;;;;;;8.37;7.73;;;;;;;9.25;83.52;99560.34;5107707;28;20218;-80
2022/04/25 08:19:09;;;;;;;8.40;7.83;;;;;;;9.21;82.72;99610.78;5110164;28;20226;-78
2022/04/25 08:21:36;;;;;;;8.63;7.93;;;;;;;9.22;82.78;99612.53;5112250;28;20238;-77
2022/04/25 08:24:05;;;;;;;8.83;8.20;;;;;;;9.26;82.36;99619.34;5109568;28;20203;-80
2022/04/25 08:26:31;;;;;;;8.87;8.17;;;;;;;9.28;83.15;99601.09;5113592;28;20199;-79
2022/04/25 08:28:59;;;;;;;8.30;7.63;;;;;;;9.33;83.49;99593.97;5115526;28;20211;-80
2022/04/25 08:31:26;;;;;;;9.37;8.67;;;;;;;9.34;83.47;99613.94;5113913;28;20247;-79
2022/04/25 08:33:52;;;;;;;9.80;9.07;;;;;;;9.32;84.03;99595.75;5113467;28;20193;-78
2022/04/25 08:36:19;;;;;;;8.57;7.87;;;;;;;9.38;83.15;99617.31;5104301;28;20249;-78
2022/04/25 08:38:45;;;;;;;8.83;8.23;;;;;;;9.33;81.75;99651.28;5104124;28;20216;-78
2022/04/25 08:41:15;;;;;;;8.23;7.63;;;;;;;9.29;82.99;99640.09;5104755;28;20219;-80
2022/04/25 08:43:42;;;;;;;8.37;7.60;;;;;;;9.20;82.23;99669.00;5102792;28;20684;-79
2022/04/25 08:46:11;;;;;;;8.20;7.60;;;;;;;9.18;82.96;99646.47;5108481;28;20255;-80
2022/04/25 08:48:38;;;;;;;9.67;8.97;;;;;;;9.14;82.89;99648.31;5107175;28;20195;-78
2022/04/25 08:51:05;;;;;;;9.40;8.77;;;;;;;9.09;83.01;99650.19;5104849;28;20220;-79
2022/04/25 08:53:32;;;;;;;9.80;9.00;;;;;;;9.03;83.20;99637.31;5104574;28;20203;-77
2022/04/25 08:56:00;;;;;;;10.97;10.17;;;;;;;9.07;83.17;99634.59;5106654;28;20612;-78
2022/04/25 08:58:28;;;;;;;10.93;10.13;;;;;;;9.11;83.45;99646.63;5106175;28;20215;-80
2022/04/25 09:00:55;;;;;;;11.10;10.20;;;;;;;9.13;83.55;99636.19;5104850;28;20554;-79
2022/04/25 09:03:22;;;;;;;10.80;10.00;;;;;;;9.21;83.60;99642.03;5101830;28;20264;-79
2022/04/25 09:05:48;;;;;;;11.50;10.60;;;;;;;9.32;83.55;99647.84;5105303;28;20202;-78
2022/04/25 09:08:14;;;;;;;11.57;10.77;;;;;;;9.33;83.14;99666.91;5106444;28;20196;-78
2022/04/25 09:10:42;;;;;;;11.27;10.33;;;;;;;9.37;82.43;99678.09;5105934;28;20272;-78
2022/04/25 09:13:11;;;;;;;11.10;10.10;;;;;;;9.43;80.64;99724.81;5105782;28;20203;-78
2022/04/25 09:15:39;;;;;;;12.93;11.93;;;;;;;9.48;80.83;99755.06;5102140;28;20336;-79
2022/04/25 09:18:05;;;;;;;13.07;12.00;;;;;;;9.52;80.42;99764.53;5105895;28;20219;-78
2022/04/25 09:20:32;;;;;;;14.07;12.87;;;;;;;9.54;79.63;99783.56;5105972;28;20261;-78
2022/04/25 09:22:59;;;;;;;14.27;13.03;;;;;;;9.51;79.45;99796.69;5109737;28;20219;-78
2022/04/25 09:25:26;;;;;;;15.00;13.60;;;;;;;9.51;79.71;99798.44;5106198;28;20212;-80
2022/04/25 09:28:07;;;;;;;13.77;12.47;;;;;;;9.62;80.16;99783.38;5106701;28;20195;-79
2022/04/25 09:30:34;;;;;;;13.90;12.70;;;;;;;9.74;79.27;99788.28;5105474;28;20248;-79
2022/04/25 09:33:02;;;;;;;13.40;12.30;;;;;;;9.81;78.97;99814.19;5104978;28;20222;-79
2022/04/25 09:35:32;;;;;;;12.97;12.00;;;;;;;9.89;78.35;99831.34;5105374;28;20200;-80
2022/04/25 09:38:00;;;;;;;13.50;12.40;;;;;;;9.99;77.53;99867.59;5110128;28;20258;-79
2022/04/25 09:40:29;;;;;;;13.10;11.93;;;;;;;10.06;77.78;99870.00;5105116;28;20700;-79
2022/04/25 09:43:08;;;;;;;13.60;12.40;;;;;;;10.12;77.36;99871.59;5106158;28;20654;-80
2022/04/25 09:45:40;;;;;;;13.90;12.80;;;;;;;10.11;77.48;99880.34;5104156;28;20231;-78
2022/04/25 09:48:11;;;;;;;13.37;12.37;;;;;;;10.12;76.81;99895.06;5096793;28;20208;-79
2022/04/25 09:50:38;;;;;;;14.00;12.97;;;;;;;10.13;76.63;99897.66;5102675;28;20201;-78
2022/04/25 09:53:06;;;;;;;13.13;12.13;;;;;;;10.11;76.83;99909.03;5106216;28;20188;-79
2022/04/25 09:55:36;;;;;;;12.30;11.30;;;;;;;10.08;77.26;99891.69;5106461;28;20249;-79
2022/04/25 09:58:14;;;;;;;12.10;11.20;;;;;;;9.98;77.48;99898.03;5105706;28;20271;-79
2022/04/25 10:00:40;;;;;;;11.87;10.73;;;;;;;9.94;78.64;99855.53;5101792;28;20324;-79
2022/04/25 10:03:08;;;;;;;12.67;11.77;;;;;;;9.95;78.69;99853.81;5104537;28;20226;-79
2022/04/25 10:05:43;;;;;;;12.03;11.13;;;;;;;9.97;78.81;99844.19;5100716;28;20359;-79
2022/04/25 10:08:11;;;;;;;11.13;10.23;;;;;;;9.99;78.10;99864.97;5100729;28;20238;-79
2022/04/25 10:10:47;;;;;;;10.63;9.60;;;;;;;9.94;79.11;99847.72;5093504;28;20212;-76
2022/04/25 10:13:13;;;;;;;11.03;10.03;;;;;;;9.96;78.46;99859.88;5091963;28;20207;-78
2022/04/25 10:15:41;;;;;;;10.30;9.47;;;;;;;9.90;79.91;99842.63;5093035;28;20200;-78
2022/04/25 10:18:09;;;;;;;10.80;9.90;;;;;;;9.89;79.07;99848.72;5093614;28;20300;-79
2022/04/25 10:20:36;;;;;;;9.37;8.67;;;;;;;9.88;78.95;99857.44;5093805;28;20295;-79
2022/04/25 10:23:05;;;;;;;9.37;8.57;;;;;;;9.88;78.13;99894.78;5094884;28;20212;-79
2022/04/25 10:25:32;;;;;;;8.60;7.80;;;;;;;9.89;77.80;99906.94;5092106;28;20687;-79
2022/04/25 10:28:00;;;;;;;9.10;8.37;;;;;;;9.90;77.73;99902.59;5101669;28;20201;-78
2022/04/25 10:30:32;;;;;;;10.57;9.73;;;;;;;9.96;78.67;99892.00;5105615;28;20430;-79
2022/04/25 10:33:13;;;;;;;9.33;8.43;;;;;;;10.08;78.12;99888.22;5103609;28;20224;-78
2022/04/25 10:35:40;;;;;;;7.27;6.77;;;;;;;10.16;76.99;99924.53;5104778;28;20275;-79
2022/04/25 10:44:14;;;;;;;11.57;8.43;;;;;;;10.25;76.32;99977.34;5025415;28;20286;-75
2022/04/25 10:47:12;;;;;;;8.17;7.37;;;;;;;10.24;76.79;99952.13;5026942;28;20659;-75
2022/04/25 10:49:40;;;;;;;8.83;8.13;;;;;;;10.24;76.96;99946.06;5028015;28;20248;-76
2022/04/25 10:52:53;;;;;;;9.23;8.33;;;;;;;10.25;76.75;99960.84;5012494;28;20257;-75
2022/04/25 10:55:23;;;;;;;7.37;6.87;;;;;;;10.18;76.81;99954.91;5008937;28;20209;-75
2022/04/25 10:58:18;;;;;;;7.90;7.23;;;;;;;10.22;75.81;99985.22;5008763;28;20702;-75
2022/04/25 11:00:51;;;;;;;7.37;6.77;;;;;;;10.17;76.85;99962.75;5008910;28;20785;-75
2022/04/25 11:03:29;;;;;;;8.57;7.87;;;;;;;10.16;76.85;99940.19;5005935;28;20207;-75
2022/04/25 11:05:58;;;;;;;8.57;7.87;;;;;;;10.12;77.73;99936.78;5008877;28;20210;-76
2022/04/25 11:08:35;;;;;;;8.27;7.57;;;;;;;10.16;77.40;99937.56;5008713;28;20207;-76
2022/04/25 11:11:06;;;;;;;7.70;7.10;;;;;;;10.21;77.17;99948.72;5009140;28;20233;-73
2022/04/25 11:13:34;;;;;;;8.70;7.77;;;;;;;10.25;76.26;99964.28;5008904;28;20200;-75
2022/04/25 11:16:18;;;;;;;8.70;7.83;;;;;;;10.26;75.61;99999.03;5008695;28;20211;-75
2022/04/25 11:18:45;;;;;;;8.97;8.07;;;;;;;10.23;76.35;99988.72;5008109;28;20205;-75
2022/04/25 11:21:14;;;;;;;8.50;7.80;;;;;;;10.25;76.10;99984.31;5008817;28;20281;-75
2022/04/25 11:23:49;;;;;;;8.83;8.03;;;;;;;10.27;76.37;99991.19;5008445;28;20676;-75
2022/04/25 11:26:48;;;;;;;8.57;7.77;;;;;;;10.31;76.76;99992.84;5008561;28;20273;-75
2022/04/25 11:29:15;;;;;;;9.63;8.80;;;;;;;10.38;76.41;99985.72;5008521;28;20554;-75
2022/04/25 11:31:43;;;;;;;9.13;8.07;;;;;;;10.38;77.03;99985.72;5009358;28;20237;-75
2022/04/25 11:34:12;;;;;;;9.23;8.40;;;;;;;10.43;76.50;99986.47;5008281;28;20772;-76
2022/04/25 11:36:40;;;;;;;8.97;8.27;;;;;;;10.49;76.42;100004.56;5008458;28;20210;-75
2022/04/25 11:41:51;;;;;;;8.90;8.10;;;;;;;10.59;75.21;100035.66;5008055;28;20330;-75
2022/04/25 11:44:17;;;;;;;8.53;7.67;;;;;;;10.60;75.52;100037.38;5008459;28;20284;-75
2022/04/25 11:46:47;;;;;;;7.63;7.03;;;;;;;10.64;75.29;100039.84;5008354;28;20262;-76
2022/04/25 11:49:26;;;;;;;8.97;8.10;;;;;;;10.70;76.03;100034.50;5008357;28;20203;-75
2022/04/25 11:51:53;;;;;;;8.00;7.33;;;;;;;10.74;75.66;100027.41;4990707;28;20704;-76
2022/04/25 11:54:19;;;;;;;8.47;7.70;;;;;;;10.79;74.45;100059.50;4994715;28;20212;-75
2022/04/25 11:56:46;;;;;;;7.83;7.23;;;;;;;10.87;73.91;100083.66;4994823;28;20210;-76
2022/04/25 11:59:14;;;;;;;7.53;6.90;;;;;;;10.93;73.17;100109.59;4994922;28;20249;-75
2022/04/25 12:01:43;;;;;;;7.60;7.00;;;;;;;10.94;72.56;100136.56;4995142;28;20227;-76
2022/04/25 12:04:15;;;;;;;7.37;6.87;;;;;;;10.95;72.58;100138.28;4994840;28;20303;-76
2022/04/25 12:06:48;;;;;;;7.97;7.23;;;;;;;10.98;72.98;100138.22;4994972;28;20425;-75
2022/04/25 12:17:36;;;;;;;9.13;8.37;;;;;;;11.04;72.83;100140.69;4994736;28;20237;-75
2022/04/25 12:20:05;;;;;;;8.93;8.13;;;;;;;11.09;72.55;100148.41;4989227;28;20225;-75
2022/04/25 12:22:32;;;;;;;8.57;7.77;;;;;;;11.11;72.84;100141.38;4639245;28;10000043;-75
2022/04/25 12:25:16;;;;;;;7.57;6.97;;;;;;;11.11;72.32;100149.22;4990780;28;20207;-75